createdAt,value
2023-10-23T00:00:08.756Z,13.61
2023-10-23T00:02:38.780Z,13.61
2023-10-23T00:05:06.058Z,13.66
2023-10-23T00:07:32.038Z,13.62
2023-10-23T00:09:57.859Z,13.58
2023-10-23T00:12:23.880Z,13.54
2023-10-23T00:14:49.767Z,13.56
2023-10-23T00:17:15.592Z,13.53
2023-10-23T00:19:41.456Z,13.50
2023-10-23T00:22:07.309Z,13.42
2023-10-23T00:24:33.165Z,13.36
2023-10-23T00:26:58.978Z,13.35
2023-10-23T00:29:24.860Z,13.38
2023-10-23T00:31:50.718Z,13.36
2023-10-23T00:34:16.848Z,13.37
2023-10-23T00:36:42.777Z,13.31
2023-10-23T00:39:08.609Z,13.26
2023-10-23T00:41:34.439Z,13.24
2023-10-23T00:44:01.517Z,13.20
2023-10-23T00:46:29.553Z,13.23
2023-10-23T00:48:56.022Z,13.25
2023-10-23T00:51:21.948Z,13.25
2023-10-23T00:53:48.754Z,13.18
2023-10-23T00:56:14.588Z,13.13
2023-10-23T00:58:42.013Z,13.14
2023-10-23T01:01:12.373Z,13.12
2023-10-23T01:03:39.779Z,13.15
2023-10-23T01:06:06.452Z,13.19
2023-10-23T01:08:32.595Z,13.19
2023-10-23T01:10:59.553Z,13.14
2023-10-23T01:13:26.845Z,13.11
2023-10-23T01:15:53.486Z,13.15
2023-10-23T01:18:19.553Z,13.13
2023-10-23T01:20:46.038Z,13.05
2023-10-23T01:23:12.403Z,12.99
2023-10-23T01:25:41.293Z,12.94
2023-10-23T01:28:07.442Z,12.94
2023-10-23T01:30:33.718Z,12.98
2023-10-23T01:32:59.799Z,12.95
2023-10-23T01:35:25.790Z,12.91
2023-10-23T01:37:52.028Z,12.88
2023-10-23T01:40:18.748Z,12.84
2023-10-23T01:42:45.087Z,12.83
2023-10-23T01:45:11.032Z,12.79
2023-10-23T01:47:36.864Z,12.80
2023-10-23T01:50:02.855Z,12.78
2023-10-23T01:52:28.689Z,12.71
2023-10-23T01:54:54.663Z,12.69
2023-10-23T01:57:20.661Z,12.64
2023-10-23T01:59:46.774Z,12.53
2023-10-23T02:02:12.611Z,12.58
2023-10-23T02:04:40.043Z,12.56
2023-10-23T02:07:06.578Z,12.50
2023-10-23T02:09:32.798Z,12.47
2023-10-23T02:11:58.950Z,12.46
2023-10-23T02:14:24.781Z,12.43
2023-10-23T02:16:50.833Z,12.43
2023-10-23T02:19:16.676Z,12.40
2023-10-23T02:21:49.784Z,12.37
2023-10-23T02:24:20.098Z,12.42
2023-10-23T02:26:48.171Z,12.48
2023-10-23T02:29:14.227Z,12.49
2023-10-23T02:31:40.076Z,12.44
2023-10-23T02:34:06.176Z,12.44
2023-10-23T02:36:32.516Z,12.47
2023-10-23T02:38:58.447Z,12.44
2023-10-23T02:41:24.444Z,12.39
2023-10-23T02:43:50.285Z,12.39
2023-10-23T02:46:16.641Z,12.40
2023-10-23T02:48:43.031Z,12.36
2023-10-23T02:51:09.143Z,12.34
2023-10-23T02:53:35.939Z,12.33
2023-10-23T02:56:02.700Z,12.36
2023-10-23T02:58:28.763Z,12.36
2023-10-23T03:00:54.670Z,12.33
2023-10-23T03:03:20.610Z,12.36
2023-10-23T03:05:47.494Z,12.31
2023-10-23T03:08:15.026Z,12.27
2023-10-23T03:10:41.174Z,12.31
2023-10-23T03:13:07.718Z,12.31
2023-10-23T03:15:33.541Z,12.32
2023-10-23T03:18:03.920Z,12.39
2023-10-23T03:20:33.013Z,12.39
2023-10-23T03:22:59.087Z,12.33
2023-10-23T03:25:25.329Z,12.32
2023-10-23T03:27:51.360Z,12.33
2023-10-23T03:30:17.204Z,12.35
2023-10-23T03:32:43.149Z,12.28
2023-10-23T03:35:08.959Z,12.25
2023-10-23T03:37:34.792Z,12.20
2023-10-23T03:40:00.863Z,12.24
2023-10-23T03:42:26.796Z,12.27
2023-10-23T03:44:52.737Z,12.21
2023-10-23T03:47:18.538Z,12.16
2023-10-23T03:49:44.360Z,12.12
2023-10-23T03:52:10.230Z,12.03
2023-10-23T03:54:36.075Z,12.09
2023-10-23T03:57:02.137Z,12.18
2023-10-23T03:59:27.971Z,12.14
2023-10-23T04:01:53.788Z,12.10
2023-10-23T04:04:19.640Z,12.18
2023-10-23T04:06:45.548Z,12.22
2023-10-23T04:09:11.567Z,12.28
2023-10-23T04:11:37.414Z,12.30
2023-10-23T04:14:04.705Z,12.31
2023-10-23T04:16:30.901Z,12.33
2023-10-23T04:18:56.878Z,12.33
2023-10-23T04:21:24.453Z,12.32
2023-10-23T04:23:50.246Z,12.33
2023-10-23T04:26:16.118Z,12.31
2023-10-23T04:28:42.047Z,12.30
2023-10-23T04:31:07.897Z,12.15
2023-10-23T04:33:34.349Z,12.11
2023-10-23T04:36:00.759Z,12.10
2023-10-23T04:38:27.327Z,12.15
2023-10-23T04:40:53.766Z,12.15
2023-10-23T04:43:20.514Z,12.14
2023-10-23T04:45:46.733Z,12.11
2023-10-23T04:48:12.954Z,12.15
2023-10-23T04:50:39.365Z,12.14
2023-10-23T04:53:06.464Z,12.16
2023-10-23T04:55:36.677Z,12.14
2023-10-23T04:58:03.347Z,12.09
2023-10-23T05:00:29.822Z,12.05
2023-10-23T05:02:56.070Z,12.02
2023-10-23T05:05:22.870Z,11.97
2023-10-23T05:07:48.753Z,11.99
2023-10-23T05:10:14.590Z,11.94
2023-10-23T05:12:40.445Z,11.96
2023-10-23T05:15:08.639Z,11.96
2023-10-23T05:17:35.114Z,12.00
2023-10-23T05:20:01.644Z,12.07
2023-10-23T05:22:27.783Z,12.14
2023-10-23T05:24:53.633Z,12.16
2023-10-23T05:27:19.570Z,12.15
2023-10-23T05:29:45.340Z,12.13
2023-10-23T05:32:11.215Z,12.11
2023-10-23T05:34:37.047Z,12.13
2023-10-23T05:37:03.401Z,12.14
2023-10-23T05:39:29.972Z,12.18
2023-10-23T05:41:55.957Z,12.17
2023-10-23T05:44:21.962Z,12.18
2023-10-23T05:46:47.839Z,12.10
2023-10-23T05:49:13.780Z,12.13
2023-10-23T05:51:39.631Z,12.22
2023-10-23T05:54:05.648Z,12.30
2023-10-23T05:56:31.465Z,12.36
2023-10-23T05:58:57.317Z,12.36
2023-10-23T06:01:23.140Z,12.36
2023-10-23T06:03:49.093Z,12.34
2023-10-23T06:06:14.974Z,12.36
2023-10-23T06:08:40.862Z,12.32
2023-10-23T06:11:11.637Z,12.35
2023-10-23T06:13:38.322Z,12.45
2023-10-23T06:16:08.183Z,12.43
2023-10-23T06:18:35.162Z,12.49
2023-10-23T06:21:05.886Z,12.52
2023-10-23T06:23:37.788Z,12.58
2023-10-23T06:26:04.540Z,12.63
2023-10-23T06:28:31.152Z,12.61
2023-10-23T06:30:57.103Z,12.68
2023-10-23T06:33:23.640Z,12.64
2023-10-23T06:35:59.252Z,12.70
2023-10-23T06:38:25.130Z,12.82
2023-10-23T06:40:51.113Z,12.86
2023-10-23T06:43:19.200Z,12.90
2023-10-23T06:46:01.096Z,12.93
2023-10-23T06:48:27.381Z,13.00
2023-10-23T06:50:54.554Z,13.03
2023-10-23T06:53:20.437Z,13.13
2023-10-23T06:55:47.759Z,13.17
2023-10-23T06:58:13.575Z,13.27
2023-10-23T07:00:39.356Z,13.43
2023-10-23T07:03:05.229Z,13.48
2023-10-23T07:05:32.959Z,13.62
2023-10-23T07:07:58.970Z,13.67
2023-10-23T07:10:24.767Z,13.67
2023-10-23T07:12:50.552Z,13.71
2023-10-23T07:15:16.394Z,13.80
2023-10-23T07:17:42.358Z,13.86
2023-10-23T07:20:08.383Z,13.97
2023-10-23T07:22:34.210Z,14.08
2023-10-23T07:25:00.073Z,14.18
2023-10-23T07:27:27.724Z,14.30
2023-10-23T07:29:55.283Z,14.38
2023-10-23T07:32:21.205Z,14.42
2023-10-23T07:34:47.027Z,14.46
2023-10-23T07:37:18.370Z,14.45
2023-10-23T07:39:48.367Z,14.51
2023-10-23T07:42:15.718Z,14.57
2023-10-23T07:44:44.697Z,14.58
2023-10-23T07:47:10.637Z,14.54
2023-10-23T07:49:36.620Z,14.62
2023-10-23T07:52:04.436Z,14.72
2023-10-23T07:54:31.678Z,14.84
2023-10-23T07:56:57.829Z,14.87
2023-10-23T07:59:24.482Z,14.93
2023-10-23T08:01:52.655Z,14.85
2023-10-23T08:04:19.579Z,14.97
2023-10-23T08:06:45.733Z,15.09
2023-10-23T08:09:12.172Z,15.12
2023-10-23T08:11:38.305Z,15.13
2023-10-23T08:14:04.645Z,15.16
2023-10-23T08:16:31.072Z,15.16
2023-10-23T08:18:57.914Z,15.14
2023-10-23T08:21:26.490Z,15.05
2023-10-23T08:23:56.944Z,15.22
2023-10-23T08:26:23.199Z,15.27
2023-10-23T08:29:02.085Z,15.24
2023-10-23T08:31:39.483Z,15.39
2023-10-23T08:34:08.032Z,15.49
2023-10-23T08:36:34.513Z,15.58
2023-10-23T08:39:00.846Z,15.56
2023-10-23T08:41:27.060Z,15.67
2023-10-23T08:43:53.326Z,15.80
2023-10-23T08:46:20.448Z,15.90
2023-10-23T08:48:46.385Z,15.93
2023-10-23T08:51:15.101Z,16.02
2023-10-23T08:54:09.407Z,16.09
2023-10-23T08:56:38.025Z,16.22
2023-10-23T08:59:05.030Z,16.28
2023-10-23T09:01:35.470Z,16.37
2023-10-23T09:04:05.595Z,16.42
2023-10-23T09:06:32.862Z,16.52
2023-10-23T09:08:59.466Z,16.60
2023-10-23T09:11:39.671Z,16.72
2023-10-23T09:14:05.647Z,16.83
2023-10-23T09:16:31.608Z,16.95
2023-10-23T09:18:57.606Z,17.04
2023-10-23T09:21:23.545Z,17.09
2023-10-23T09:23:54.842Z,17.14
2023-10-23T09:26:21.956Z,17.25
2023-10-23T09:28:52.752Z,17.35
2023-10-23T09:31:20.118Z,17.33
2023-10-23T09:33:47.435Z,17.39
2023-10-23T09:36:14.414Z,17.42
2023-10-23T09:38:42.644Z,17.47
2023-10-23T09:41:11.841Z,17.54
2023-10-23T09:43:47.437Z,17.66
2023-10-23T09:46:14.002Z,17.70
2023-10-23T09:48:44.618Z,17.64
2023-10-23T09:51:15.886Z,17.67
2023-10-23T09:53:59.248Z,17.81
2023-10-23T09:56:30.012Z,17.89
2023-10-23T09:59:00.565Z,17.88
2023-10-23T10:01:36.442Z,18.02
2023-10-23T10:04:13.587Z,18.10
2023-10-23T10:06:45.335Z,18.24
2023-10-23T10:09:12.844Z,18.34
2023-10-23T10:11:42.646Z,18.40
2023-10-23T10:14:08.837Z,18.44
2023-10-23T10:16:34.773Z,18.47
2023-10-23T10:19:02.293Z,18.42
2023-10-23T10:21:30.862Z,18.44
2023-10-23T10:23:59.471Z,18.52
2023-10-23T10:26:26.212Z,18.58
2023-10-23T10:28:55.340Z,18.60
2023-10-23T10:31:22.543Z,18.57
2023-10-23T10:34:26.113Z,18.61
2023-10-23T10:36:45.737Z,18.57
2023-10-23T10:39:13.448Z,18.62
2023-10-23T10:41:40.561Z,18.66
2023-10-23T10:44:10.669Z,18.62
2023-10-23T10:46:40.515Z,18.70
2023-10-23T10:49:06.806Z,18.88
2023-10-23T10:51:32.714Z,18.96
2023-10-23T10:54:04.216Z,19.06
2023-10-23T10:56:30.788Z,19.15
2023-10-23T10:59:04.178Z,19.26
2023-10-23T11:01:30.968Z,19.32
2023-10-23T11:03:57.103Z,19.26
2023-10-23T11:06:26.158Z,19.24
2023-10-23T11:08:55.187Z,19.20
2023-10-23T11:11:21.052Z,19.30
2023-10-23T11:13:47.314Z,19.41
2023-10-23T11:16:13.456Z,19.36
2023-10-23T11:18:39.334Z,19.33
2023-10-23T11:21:05.865Z,19.40
2023-10-23T11:23:32.205Z,19.50
2023-10-23T11:25:58.441Z,19.60
2023-10-23T11:28:25.557Z,19.63
2023-10-23T11:30:56.657Z,19.56
2023-10-23T11:33:22.506Z,19.56
2023-10-23T11:35:48.436Z,19.62
2023-10-23T11:38:19.831Z,19.70
2023-10-23T11:40:46.114Z,19.74
2023-10-23T11:43:16.801Z,19.82
2023-10-23T11:45:45.762Z,19.85
2023-10-23T11:48:12.682Z,19.88
2023-10-23T11:50:41.158Z,19.87
2023-10-23T11:53:07.219Z,19.92
2023-10-23T11:55:34.247Z,19.94
2023-10-23T11:58:01.291Z,19.92
2023-10-23T12:00:28.051Z,19.86
2023-10-23T12:02:54.696Z,19.90
2023-10-23T12:05:22.717Z,19.86
2023-10-23T12:07:50.635Z,19.85
2023-10-23T12:10:17.417Z,19.75
2023-10-23T12:12:44.018Z,19.79
2023-10-23T12:15:11.556Z,19.80
2023-10-23T12:17:38.400Z,19.90
2023-10-23T12:20:08.428Z,19.97
2023-10-23T12:22:36.822Z,20.07
2023-10-23T12:25:04.892Z,20.12
2023-10-23T12:27:32.460Z,20.21
2023-10-23T12:29:58.921Z,20.25
2023-10-23T12:33:18.651Z,20.20
2023-10-23T12:35:14.144Z,20.20
2023-10-23T12:37:40.536Z,20.27
2023-10-23T12:40:11.617Z,20.19
2023-10-23T12:42:37.720Z,20.13
2023-10-23T12:45:03.968Z,20.23
2023-10-23T12:47:29.811Z,20.28
2023-10-23T12:49:55.699Z,20.30
2023-10-23T12:52:21.584Z,20.36
2023-10-23T12:54:47.614Z,20.28
2023-10-23T12:57:13.649Z,20.38
2023-10-23T12:59:39.708Z,20.45
2023-10-23T13:02:05.714Z,20.49
2023-10-23T13:04:31.719Z,20.55
2023-10-23T13:06:57.751Z,20.41
2023-10-23T13:09:23.820Z,20.47
2023-10-23T13:11:50.158Z,20.49
2023-10-23T13:14:15.992Z,20.39
2023-10-23T13:16:41.949Z,20.40
2023-10-23T13:19:08.037Z,20.40
2023-10-23T13:21:35.683Z,20.43
2023-10-23T13:24:05.243Z,20.47
2023-10-23T13:26:32.298Z,20.52
2023-10-23T13:28:58.531Z,20.53
2023-10-23T13:31:25.977Z,20.57
2023-10-23T13:33:51.844Z,20.63
2023-10-23T13:36:17.695Z,20.56
2023-10-23T13:38:43.567Z,20.51
2023-10-23T13:41:09.422Z,20.50
2023-10-23T13:43:35.263Z,20.41
2023-10-23T13:46:01.502Z,20.40
2023-10-23T13:48:27.534Z,20.48
2023-10-23T13:50:53.623Z,20.38
2023-10-23T13:53:21.202Z,20.48
2023-10-23T13:55:47.540Z,20.55
2023-10-23T13:58:13.801Z,20.51
2023-10-23T14:00:39.683Z,20.58
2023-10-23T14:03:05.997Z,20.66
2023-10-23T14:05:34.066Z,20.72
2023-10-23T14:08:01.602Z,20.71
2023-10-23T14:10:27.985Z,20.73
2023-10-23T14:12:53.880Z,20.74
2023-10-23T14:15:20.716Z,20.79
2023-10-23T14:17:46.702Z,20.77
2023-10-23T14:20:13.160Z,20.78
2023-10-23T14:22:40.427Z,20.73
2023-10-23T14:25:10.404Z,20.78
2023-10-23T14:27:37.462Z,20.81
2023-10-23T14:30:08.781Z,20.80
2023-10-23T14:32:36.141Z,20.79
2023-10-23T14:35:02.956Z,20.80
2023-10-23T14:37:29.024Z,20.73
2023-10-23T14:39:57.176Z,20.71
2023-10-23T14:42:24.589Z,20.70
2023-10-23T14:44:50.390Z,20.66
2023-10-23T14:47:16.369Z,20.65
2023-10-23T14:49:42.306Z,20.60
2023-10-23T14:52:08.277Z,20.60
2023-10-23T14:54:34.159Z,20.58
2023-10-23T14:57:00.920Z,20.56
2023-10-23T14:59:26.764Z,20.53
2023-10-23T15:01:57.198Z,20.47
2023-10-23T15:04:23.875Z,20.45
2023-10-23T15:06:49.884Z,20.41
2023-10-23T15:09:15.805Z,20.36
2023-10-23T15:11:41.833Z,20.28
2023-10-23T15:14:07.629Z,20.23
2023-10-23T15:16:36.142Z,20.17
2023-10-23T15:19:02.971Z,20.11
2023-10-23T15:21:28.802Z,20.02
2023-10-23T15:23:54.728Z,19.95
2023-10-23T15:26:20.620Z,19.87
2023-10-23T15:28:46.412Z,19.78
2023-10-23T15:31:12.961Z,19.72
2023-10-23T15:33:38.989Z,19.62
2023-10-23T15:36:05.800Z,19.52
2023-10-23T15:38:32.759Z,19.43
2023-10-23T15:41:06.579Z,19.29
2023-10-23T15:43:33.117Z,19.21
2023-10-23T15:45:59.435Z,19.09
2023-10-23T15:48:25.546Z,18.97
2023-10-23T15:50:51.384Z,18.89
2023-10-23T15:53:17.214Z,18.76
2023-10-23T15:55:47.120Z,18.66
2023-10-23T15:58:13.065Z,18.59
2023-10-23T16:00:38.980Z,18.50
2023-10-23T16:03:07.679Z,18.43
2023-10-23T16:05:33.813Z,18.29
2023-10-23T16:07:59.707Z,18.24
2023-10-23T16:10:26.663Z,18.14
2023-10-23T16:12:52.538Z,18.08
2023-10-23T16:15:20.972Z,18.03
2023-10-23T16:17:47.221Z,17.94
2023-10-23T16:20:13.470Z,17.88
2023-10-23T16:22:40.813Z,17.81
2023-10-23T16:25:09.418Z,17.67
2023-10-23T16:27:35.703Z,17.62
2023-10-23T16:30:06.713Z,17.57
2023-10-23T16:32:32.636Z,17.51
2023-10-23T16:34:58.817Z,17.47
2023-10-23T16:37:27.845Z,17.42
2023-10-23T16:39:53.672Z,17.31
2023-10-23T16:42:19.462Z,17.24
2023-10-23T16:44:55.294Z,17.14
2023-10-23T16:47:22.691Z,17.04
2023-10-23T16:49:50.211Z,16.97
2023-10-23T16:52:16.159Z,16.87
2023-10-23T16:54:42.012Z,16.79
2023-10-23T16:57:09.671Z,16.75
2023-10-23T16:59:35.998Z,16.67
2023-10-23T17:02:02.445Z,16.68
2023-10-23T17:04:28.479Z,16.65
2023-10-23T17:06:54.303Z,16.59
2023-10-23T17:09:20.267Z,16.54
2023-10-23T17:11:46.164Z,16.45
2023-10-23T17:14:11.945Z,16.40
2023-10-23T17:16:38.101Z,16.33
2023-10-23T17:19:05.856Z,16.25
2023-10-23T17:21:32.281Z,16.21
2023-10-23T17:23:58.248Z,16.20
2023-10-23T17:26:24.246Z,16.15
2023-10-23T17:28:50.889Z,16.12
2023-10-23T17:31:16.838Z,16.07
2023-10-23T17:33:42.748Z,16.05
2023-10-23T17:36:09.032Z,16.01
2023-10-23T17:38:37.700Z,15.98
2023-10-23T17:41:03.525Z,15.94
2023-10-23T17:43:29.489Z,15.93
2023-10-23T17:46:00.954Z,15.85
2023-10-23T17:48:26.783Z,15.81
2023-10-23T17:50:58.671Z,15.76
2023-10-23T17:53:24.453Z,15.75
2023-10-23T17:55:50.297Z,15.74
2023-10-23T17:58:16.165Z,15.70
2023-10-23T18:00:42.071Z,15.69
2023-10-23T18:03:08.070Z,15.64
2023-10-23T18:05:33.985Z,15.61
2023-10-23T18:07:59.794Z,15.57
2023-10-23T18:10:25.775Z,15.50
2023-10-23T18:12:52.771Z,15.43
2023-10-23T18:15:19.937Z,15.38
2023-10-23T18:17:48.025Z,15.34
2023-10-23T18:20:14.245Z,15.33
2023-10-23T18:22:40.350Z,15.33
2023-10-23T18:25:08.508Z,15.34
2023-10-23T18:27:34.430Z,15.31
2023-10-23T18:30:00.544Z,15.27
2023-10-23T18:32:26.387Z,15.21
2023-10-23T18:34:53.844Z,15.21
2023-10-23T18:37:20.038Z,15.18
2023-10-23T18:39:45.914Z,15.16
2023-10-23T18:42:11.822Z,15.12
2023-10-23T18:44:37.693Z,15.03
2023-10-23T18:47:05.811Z,15.02
2023-10-23T18:49:31.761Z,15.02
2023-10-23T18:51:57.667Z,15.04
2023-10-23T18:54:23.613Z,15.05
2023-10-23T18:56:50.762Z,15.02
2023-10-23T18:59:16.628Z,14.96
2023-10-23T19:01:43.114Z,14.94
2023-10-23T19:04:09.281Z,14.90
2023-10-23T19:06:37.008Z,14.89
2023-10-23T19:09:04.990Z,14.86
2023-10-23T19:11:31.568Z,14.83
2023-10-23T19:13:57.648Z,14.83
2023-10-23T19:16:23.844Z,14.84
2023-10-23T19:18:50.459Z,14.74
2023-10-23T19:21:16.584Z,14.72
2023-10-23T19:23:43.316Z,14.73
2023-10-23T19:26:10.122Z,14.70
2023-10-23T19:28:36.636Z,14.65
2023-10-23T19:31:14.068Z,14.56
2023-10-23T19:33:44.568Z,14.51
2023-10-23T19:36:11.952Z,14.51
2023-10-23T19:38:39.663Z,14.45
2023-10-23T19:41:10.599Z,14.43
2023-10-23T19:43:45.100Z,14.45
2023-10-23T19:46:13.267Z,14.39
2023-10-23T19:48:39.938Z,14.38
2023-10-23T19:51:06.240Z,14.36
2023-10-23T19:53:41.886Z,14.37
2023-10-23T19:56:17.584Z,14.31
2023-10-23T19:58:43.848Z,14.32
2023-10-23T20:01:09.773Z,14.29
2023-10-23T20:03:35.641Z,14.27
2023-10-23T20:06:01.472Z,14.17
2023-10-23T20:08:30.145Z,14.15
2023-10-23T20:10:55.978Z,14.17
2023-10-23T20:13:21.810Z,14.12
2023-10-23T20:15:47.658Z,14.01
2023-10-23T20:18:13.482Z,14.01
2023-10-23T20:20:39.333Z,14.02
2023-10-23T20:23:05.503Z,14.04
2023-10-23T20:25:35.012Z,13.97
2023-10-23T20:28:01.320Z,13.95
2023-10-23T20:30:28.212Z,13.95
2023-10-23T20:32:54.097Z,13.95
2023-10-23T20:35:19.982Z,13.93
2023-10-23T20:37:45.836Z,13.95
2023-10-23T20:40:12.115Z,14.00
2023-10-23T20:42:37.992Z,14.01
2023-10-23T20:45:05.578Z,13.99
2023-10-23T20:47:32.138Z,14.03
2023-10-23T20:49:58.560Z,14.07
2023-10-23T20:52:24.668Z,14.09
2023-10-23T20:54:51.206Z,14.00
2023-10-23T20:57:17.010Z,14.02
2023-10-23T20:59:42.832Z,13.95
2023-10-23T21:02:09.296Z,14.01
2023-10-23T21:04:35.452Z,14.01
2023-10-23T21:07:01.471Z,14.03
2023-10-23T21:09:27.419Z,14.05
2023-10-23T21:11:53.265Z,14.05
2023-10-23T21:14:19.093Z,14.03
2023-10-23T21:16:44.956Z,13.96
2023-10-23T21:19:10.856Z,13.87
2023-10-23T21:21:36.674Z,13.81
2023-10-23T21:24:02.672Z,13.85
2023-10-23T21:26:30.215Z,13.92
2023-10-23T21:29:19.564Z,13.93
2023-10-23T21:31:46.299Z,13.92
2023-10-23T21:34:12.437Z,13.87
2023-10-23T21:36:38.338Z,13.83
2023-10-23T21:39:04.181Z,13.88
2023-10-23T21:41:30.049Z,13.93
2023-10-23T21:43:55.997Z,13.96
2023-10-23T21:46:21.939Z,13.93
2023-10-23T21:48:47.832Z,13.92
2023-10-23T21:51:13.656Z,13.91
2023-10-23T21:53:39.626Z,13.95
2023-10-23T21:56:05.789Z,13.88
2023-10-23T21:59:02.694Z,13.87
2023-10-23T22:01:19.779Z,13.83
2023-10-23T22:03:46.321Z,13.85
2023-10-23T22:06:13.585Z,13.83
2023-10-23T22:08:40.094Z,13.71
2023-10-23T22:11:07.812Z,13.76
2023-10-23T22:13:34.950Z,13.75
2023-10-23T22:16:01.421Z,13.65
2023-10-23T22:18:27.962Z,13.70
2023-10-23T22:20:54.408Z,13.73
2023-10-23T22:23:20.690Z,13.75
2023-10-23T22:25:46.977Z,13.69
2023-10-23T22:28:13.117Z,13.73
2023-10-23T22:30:39.034Z,13.71
2023-10-23T22:33:14.044Z,13.71
2023-10-23T22:35:40.977Z,13.76
2023-10-23T22:38:09.717Z,13.68
2023-10-23T22:40:36.421Z,13.66
2023-10-23T22:43:02.343Z,13.70
2023-10-23T22:45:28.991Z,13.71
2023-10-23T22:47:54.839Z,13.71
2023-10-23T22:50:21.060Z,13.74
2023-10-23T22:52:47.163Z,13.75
2023-10-23T22:55:13.563Z,13.81
2023-10-23T22:57:40.249Z,13.81
2023-10-23T23:00:10.674Z,13.74
2023-10-23T23:02:37.328Z,13.74
2023-10-23T23:05:03.638Z,13.76
2023-10-23T23:07:36.456Z,13.69
2023-10-23T23:10:07.073Z,13.73
2023-10-23T23:12:33.590Z,13.75
2023-10-23T23:14:59.711Z,13.78
2023-10-23T23:17:32.690Z,13.77
2023-10-23T23:20:02.768Z,13.73
2023-10-23T23:22:28.710Z,13.79
2023-10-23T23:24:54.600Z,13.84
2023-10-23T23:27:20.449Z,13.87
2023-10-23T23:29:46.292Z,13.92
2023-10-23T23:32:12.823Z,13.99
2023-10-23T23:34:38.848Z,14.03
2023-10-23T23:37:04.867Z,14.08
2023-10-23T23:39:30.695Z,14.12
2023-10-23T23:41:56.553Z,14.17
2023-10-23T23:44:22.384Z,14.18
2023-10-23T23:46:48.839Z,14.17
2023-10-23T23:49:14.994Z,14.12
2023-10-23T23:51:40.838Z,14.15
2023-10-23T23:54:06.790Z,14.16
2023-10-23T23:56:32.808Z,14.20
2023-10-23T23:58:58.641Z,14.23
